El Hierro > ESTACION METEOROLÓGICA Isora-Tajace

DATOS ACTUALES Online

Ultima actulizacion 1 minutos

19 ºC

Temperatura

49

Humedad (%)

914.9

Presión (mb)

0

Precipitación (mm)

26.3 S

Viento (Km/h)

DATOS DIARIOS

Temperatura últimas 24 horas (ºC)

Humedad últimas 24 horas (%)

Presión atmosférica últimas 24 horas (mb)

Precipitaciones últimas 23 horas (mm)

Viento últimas 24 horas (Km/h)

Hora Temperatura (°C) ºC Precipitación (mm) mm Presión (mb) mb Humedad (%) % Viento (Km/h) km/h
16 - 00:00 20.4 0 915 35 28.4 SO
16 - 01:00 21.8 0 915 38 14.8 SW
16 - 02:00 18.7 0 915 54 11.2 SW
16 - 03:00 20.4 0 914 45 16.9 S
16 - 04:00 19.3 0 914 47 24.5 SO
16 - 05:00 20.6 0 914 38 23.8 S
16 - 06:00 20.2 0 914 43 21.2 SO
16 - 07:00 19.8 0 914 47 23 SO
16 - 08:00 21.3 0 914 38 20.9 SO
16 - 09:00 23.4 0 914 33 20.2 SO
16 - 10:00 24.2 0 915 31 14 SW
16 - 11:00 24.1 0 915 33 25.9 SW
16 - 12:00 24.4 0 915 39 21.2 S
16 - 13:00 24.2 0 914 43 26.3 S
16 - 14:00 24.2 0 914 44 18 S
16 - 15:00 24.4 0 914 38 19.8 S
16 - 16:00 24.1 0 914 38 26.3 SW
16 - 17:00 22.8 0 913 40 23.4 SO
16 - 18:00 21.5 0 913 38 28.1 S
16 - 19:00 21.8 0 913 37 28.4 S
16 - 20:00 18.9 0 914 62 24.1 S
16 - 21:00 19.3 0 914 50 22.7 S
16 - 22:00 19.2 0 915 42 25.9 S
16 - 23:00 19.2 0 915 48 25.2 SO
17 - 00:00 19 0 915 49 26.3 S
Apalmet utiliza cookies propias y de terceros para mejorar la usabilidad y la experiencia web. Política de cookies.